Time;durP1;ratioP1;P1;durP2;ratioP2;P2;SDS_P1;SDS_P2;PMS_P1;PMS_P2;Temp;Humidity;BMP_temperature;BMP_pressure;BME280_temperature;BME280_humidity;BME280_pressure;Samples;Min_cycle;Max_cycle;Signal;HPM_P1;HPM_P2
2022/11/12 00:02:10;;;;;;;22.58;17.23;;;;;;;;;;4992478;28;92397;-82
2022/11/12 00:04:55;;;;;;;20.38;16.52;;;;;;;;;;4992735;28;92413;-82
2022/11/12 00:07:40;;;;;;;22.13;17.17;;;;;;;;;;4994124;28;92473;-82
2022/11/12 00:10:25;;;;;;;20.90;17.38;;;;;;;;;;4993734;28;92487;-82
2022/11/12 00:13:10;;;;;;;23.63;17.73;;;;;;;;;;4992597;28;91874;-82
2022/11/12 00:15:55;;;;;;;19.48;16.63;;;;;;;;;;4992353;28;92738;-82
2022/11/12 00:18:40;;;;;;;20.95;16.55;;;;;;;;;;4993634;28;92778;-83
2022/11/12 00:21:25;;;;;;;26.45;17.30;;;;;;;;;;4992338;28;95168;-82
2022/11/12 00:24:11;;;;;;;21.50;16.55;;;;;;;;;;4992913;28;92398;-83
2022/11/12 00:26:56;;;;;;;21.15;15.65;;;;;;;;;;4978776;28;92515;-82
2022/11/12 00:29:41;;;;;;;18.85;16.00;;;;;;;;;;4975692;28;92769;-82
2022/11/12 00:32:26;;;;;;;22.67;16.63;;;;;;;;;;4982075;28;92529;-83
2022/11/12 00:35:11;;;;;;;30.85;18.52;;;;;;;;;;4991123;28;92356;-82
2022/11/12 00:37:58;;;;;;;25.83;17.52;;;;;;;;;;4997871;28;92332;-83
2022/11/12 00:40:43;;;;;;;23.60;17.58;;;;;;;;;;4994781;28;93111;-82
2022/11/12 00:43:28;;;;;;;23.52;17.20;;;;;;;;;;4987718;28;93544;-82
2022/11/12 00:46:13;;;;;;;28.38;17.02;;;;;;;;;;4995962;28;92407;-83
2022/11/12 00:48:58;;;;;;;22.08;17.63;;;;;;;;;;4996646;28;94725;-82
2022/11/12 00:51:43;;;;;;;24.17;19.10;;;;;;;;;;4995537;28;92434;-83
2022/11/12 00:54:28;;;;;;;24.67;18.92;;;;;;;;;;5000835;28;92545;-83
2022/11/12 00:57:12;;;;;;;21.42;16.95;;;;;;;;;;4997956;28;92657;-82
2022/11/12 00:59:57;;;;;;;23.83;16.45;;;;;;;;;;4995225;28;92479;-82
2022/11/12 01:02:42;;;;;;;29.52;16.42;;;;;;;;;;4996542;28;92542;-82
2022/11/12 01:05:34;;;;;;;29.27;17.27;;;;;;;;;;4997619;28;92655;-82
2022/11/12 01:08:19;;;;;;;22.92;17.00;;;;;;;;;;4996443;28;91626;-82
2022/11/12 01:11:11;;;;;;;22.52;16.77;;;;;;;;;;4996475;28;92426;-82
2022/11/12 01:14:04;;;;;;;25.23;18.33;;;;;;;;;;4995513;28;92687;-82
2022/11/12 01:16:49;;;;;;;25.10;17.50;;;;;;;;;;4993100;28;95104;-82
2022/11/12 01:19:34;;;;;;;26.58;18.10;;;;;;;;;;4998961;28;93868;-82
2022/11/12 01:22:20;;;;;;;25.88;17.40;;;;;;;;;;4994607;28;92454;-82
2022/11/12 01:25:05;;;;;;;22.75;17.70;;;;;;;;;;4995694;28;92497;-82
2022/11/12 01:27:52;;;;;;;24.33;18.40;;;;;;;;;;4975041;28;92287;-82
2022/11/12 01:30:37;;;;;;;26.85;19.73;;;;;;;;;;4976815;28;92432;-82
2022/11/12 01:33:22;;;;;;;24.98;19.20;;;;;;;;;;4977040;28;92989;-82
2022/11/12 01:36:07;;;;;;;29.77;19.98;;;;;;;;;;4997716;28;92084;-82
2022/11/12 01:38:52;;;;;;;30.45;19.98;;;;;;;;;;4996948;28;92552;-82
2022/11/12 01:41:39;;;;;;;24.98;19.55;;;;;;;;;;4993173;28;92481;-82
2022/11/12 01:44:25;;;;;;;25.80;20.45;;;;;;;;;;4997645;28;95075;-82
2022/11/12 01:47:20;;;;;;;24.30;19.27;;;;;;;;;;4994732;28;94835;-82
2022/11/12 01:50:06;;;;;;;24.85;19.67;;;;;;;;;;4996497;28;92662;-82
2022/11/12 01:52:54;;;;;;;28.10;19.45;;;;;;;;;;4996275;28;92625;-82
2022/11/12 01:55:39;;;;;;;22.10;19.13;;;;;;;;;;4995189;28;92578;-82
2022/11/12 01:58:27;;;;;;;23.58;17.63;;;;;;;;;;4995337;28;92438;-82
2022/11/12 02:01:12;;;;;;;28.08;19.02;;;;;;;;;;4997226;28;92353;-82
2022/11/12 02:03:57;;;;;;;24.05;19.90;;;;;;;;;;4995493;28;92499;-82
2022/11/12 02:06:43;;;;;;;22.27;19.55;;;;;;;;;;4995109;28;92328;-82
2022/11/12 02:09:28;;;;;;;24.70;19.60;;;;;;;;;;5000313;28;92747;-82
2022/11/12 02:13:56;;;;;;;26.42;19.90;;;;;;;;;;4996416;28;95050;-82
2022/11/12 02:15:18;;;;;;;26.75;20.63;;;;;;;;;;4996551;28;92629;-82
2022/11/12 02:18:03;;;;;;;34.13;23.67;;;;;;;;;;4996462;28;92428;-82
2022/11/12 02:20:56;;;;;;;30.42;22.08;;;;;;;;;;4994306;28;92331;-82
2022/11/12 02:23:41;;;;;;;37.60;20.80;;;;;;;;;;4995403;28;92486;-82
2022/11/12 02:26:27;;;;;;;29.60;21.95;;;;;;;;;;4994403;28;92400;-82
2022/11/12 02:29:12;;;;;;;29.27;22.38;;;;;;;;;;4994431;28;92658;-81
2022/11/12 02:31:57;;;;;;;32.30;22.35;;;;;;;;;;4996452;28;91625;-81
2022/11/12 02:34:41;;;;;;;27.15;21.75;;;;;;;;;;4999390;28;92641;-81
2022/11/12 02:37:26;;;;;;;32.63;23.45;;;;;;;;;;4995099;28;92465;-81
2022/11/12 02:40:13;;;;;;;28.90;22.45;;;;;;;;;;4992971;28;94938;-81
2022/11/12 02:42:59;;;;;;;31.88;22.33;;;;;;;;;;4993569;28;92501;-81
2022/11/12 02:45:44;;;;;;;32.33;23.88;;;;;;;;;;4994230;28;92423;-81
2022/11/12 02:48:28;;;;;;;32.15;23.63;;;;;;;;;;4994982;28;92439;-82
2022/11/12 02:51:14;;;;;;;33.95;25.02;;;;;;;;;;4994851;28;92651;-82
2022/11/12 02:53:58;;;;;;;28.67;22.98;;;;;;;;;;4994061;28;92398;-82
2022/11/12 02:56:43;;;;;;;34.08;25.30;;;;;;;;;;4997626;28;92494;-82
2022/11/12 02:59:28;;;;;;;36.08;23.65;;;;;;;;;;4995879;28;91676;-81
2022/11/12 03:02:13;;;;;;;36.15;24.30;;;;;;;;;;4996380;28;93342;-81
2022/11/12 03:04:57;;;;;;;33.30;24.45;;;;;;;;;;4994265;28;92663;-82
2022/11/12 03:07:42;;;;;;;33.17;23.98;;;;;;;;;;4992484;28;94792;-82
2022/11/12 03:10:27;;;;;;;30.35;23.20;;;;;;;;;;4995103;28;95015;-82
2022/11/12 03:13:12;;;;;;;32.38;22.45;;;;;;;;;;4993193;28;92625;-82
2022/11/12 03:15:59;;;;;;;37.10;22.92;;;;;;;;;;4993518;28;92296;-82
2022/11/12 03:18:44;;;;;;;32.63;22.63;;;;;;;;;;4993770;28;92469;-81
2022/11/12 03:21:29;;;;;;;66.05;23.05;;;;;;;;;;4995503;28;93035;-82
2022/11/12 03:24:13;;;;;;;73.32;25.65;;;;;;;;;;4994090;28;92834;-81
2022/11/12 03:26:59;;;;;;;75.80;24.48;;;;;;;;;;4996158;28;91741;-81
2022/11/12 03:29:44;;;;;;;113.20;26.02;;;;;;;;;;4993871;28;92402;-82
2022/11/12 03:32:29;;;;;;;99.35;28.75;;;;;;;;;;4994253;28;92519;-81
2022/11/12 03:35:14;;;;;;;85.85;26.42;;;;;;;;;;4993392;28;94825;-82
2022/11/12 03:37:59;;;;;;;69.00;24.85;;;;;;;;;;4991849;28;92341;-81
2022/11/12 03:40:43;;;;;;;90.10;27.85;;;;;;;;;;4994403;28;92509;-82
2022/11/12 03:43:28;;;;;;;59.88;26.92;;;;;;;;;;4992808;28;93386;-81
2022/11/12 03:46:13;;;;;;;68.57;31.00;;;;;;;;;;4982510;28;92610;-81
2022/11/12 03:48:58;;;;;;;117.05;31.13;;;;;;;;;;4977146;28;92644;-81
2022/11/12 03:51:43;;;;;;;83.55;31.00;;;;;;;;;;4992404;28;92542;-82
2022/11/12 03:54:28;;;;;;;61.42;32.53;;;;;;;;;;4992755;28;93003;-81
2022/11/12 03:57:13;;;;;;;68.55;31.83;;;;;;;;;;4993863;28;92749;-81
2022/11/12 03:59:57;;;;;;;72.35;31.10;;;;;;;;;;4992489;28;92361;-82
2022/11/12 04:02:42;;;;;;;98.35;27.35;;;;;;;;;;4993616;28;94791;-81
2022/11/12 04:08:37;;;;;;;85.30;27.25;;;;;;;;;;4993212;28;92410;-81
2022/11/12 04:11:22;;;;;;;86.55;33.42;;;;;;;;;;4998094;28;92471;-81
2022/11/12 04:14:07;;;;;;;59.53;32.58;;;;;;;;;;4994951;28;92397;-81
2022/11/12 04:22:59;;;;;;;96.00;25.67;;;;;;;;;;4998569;28;91676;-80
2022/11/12 04:31:52;;;;;;;58.70;28.45;;;;;;;;;;4996557;28;94720;-80
2022/11/12 04:34:37;;;;;;;33.00;23.95;;;;;;;;;;4989470;28;94891;-81
2022/11/12 04:37:23;;;;;;;37.72;25.88;;;;;;;;;;4980837;28;92598;-81
2022/11/12 04:44:58;;;;;;;49.00;25.35;;;;;;;;;;4981315;28;92499;-81
2022/11/12 04:46:18;;;;;;;38.28;23.83;;;;;;;;;;4994814;28;92995;-80
2022/11/12 04:49:03;;;;;;;28.30;22.95;;;;;;;;;;4974846;28;92433;-80
2022/11/12 04:52:06;;;;;;;32.13;23.75;;;;;;;;;;4978643;28;91907;-80
2022/11/12 04:54:51;;;;;;;42.63;24.27;;;;;;;;;;4977365;28;92901;-80
2022/11/12 04:57:36;;;;;;;69.88;29.02;;;;;;;;;;4996090;28;92515;-80
2022/11/12 05:00:21;;;;;;;39.85;26.90;;;;;;;;;;4995562;28;95032;-80
2022/11/12 05:03:06;;;;;;;41.53;27.33;;;;;;;;;;4999957;28;92441;-80
2022/11/12 05:05:51;;;;;;;32.35;24.75;;;;;;;;;;4995161;28;92337;-80
2022/11/12 05:08:35;;;;;;;33.03;24.63;;;;;;;;;;4995495;28;93220;-80
2022/11/12 05:11:20;;;;;;;27.48;22.13;;;;;;;;;;4994587;28;92487;-82
2022/11/12 05:14:05;;;;;;;26.52;22.38;;;;;;;;;;4995388;28;92592;-81
2022/11/12 05:16:50;;;;;;;28.35;22.83;;;;;;;;;;4974329;28;92434;-81
2022/11/12 05:19:35;;;;;;;30.42;22.13;;;;;;;;;;4977602;28;92408;-80
2022/11/12 05:22:20;;;;;;;24.52;21.63;;;;;;;;;;4992181;28;92620;-80
2022/11/12 05:25:25;;;;;;;38.47;25.20;;;;;;;;;;4978677;28;92504;-81
2022/11/12 05:28:10;;;;;;;26.70;22.75;;;;;;;;;;4995648;28;94692;-81
2022/11/12 05:30:55;;;;;;;26.23;23.35;;;;;;;;;;4995008;28;92441;-81
2022/11/12 05:33:40;;;;;;;24.42;21.83;;;;;;;;;;4994842;28;92496;-81
2022/11/12 05:36:25;;;;;;;27.95;22.92;;;;;;;;;;4994660;28;92739;-81
2022/11/12 05:39:09;;;;;;;28.00;20.20;;;;;;;;;;4993989;28;92467;-81
2022/11/12 05:41:54;;;;;;;26.10;21.70;;;;;;;;;;4995926;28;92483;-81
2022/11/12 05:44:56;;;;;;;23.60;20.20;;;;;;;;;;4994109;28;92946;-81
2022/11/12 05:47:41;;;;;;;25.50;21.20;;;;;;;;;;4996166;28;91772;-81
2022/11/12 05:50:26;;;;;;;35.47;22.95;;;;;;;;;;4999563;28;92368;-81
2022/11/12 05:53:23;;;;;;;34.88;24.35;;;;;;;;;;4994404;28;92484;-81
2022/11/12 05:56:09;;;;;;;23.35;20.73;;;;;;;;;;4992246;28;94764;-81
2022/11/12 05:58:54;;;;;;;25.70;21.52;;;;;;;;;;4995650;28;92720;-81
2022/11/12 06:01:45;;;;;;;23.70;21.15;;;;;;;;;;4990776;28;92481;-80
2022/11/12 06:04:30;;;;;;;23.17;20.73;;;;;;;;;;4993688;28;92935;-80
2022/11/12 06:07:14;;;;;;;22.13;19.90;;;;;;;;;;4996827;28;92697;-81
2022/11/12 06:09:59;;;;;;;23.88;21.48;;;;;;;;;;4986666;28;92480;-81
2022/11/12 06:12:44;;;;;;;22.30;20.02;;;;;;;;;;4994937;28;92879;-81
2022/11/12 06:15:29;;;;;;;23.92;20.48;;;;;;;;;;4995154;28;91920;-80
2022/11/12 06:18:18;;;;;;;30.70;22.92;;;;;;;;;;4983003;28;94038;-80
2022/11/12 06:21:23;;;;;;;30.52;22.90;;;;;;;;;;4989352;28;92989;-81
2022/11/12 06:24:07;;;;;;;34.55;23.60;;;;;;;;;;4989656;28;94920;-81
2022/11/12 06:26:52;;;;;;;32.67;24.17;;;;;;;;;;4993570;28;93889;-80
2022/11/12 06:29:37;;;;;;;32.45;25.30;;;;;;;;;;4995777;28;92618;-80
2022/11/12 06:32:23;;;;;;;35.65;25.75;;;;;;;;;;4996363;28;92376;-80
2022/11/12 06:35:07;;;;;;;38.70;27.88;;;;;;;;;;4993982;28;92514;-79
2022/11/12 06:37:54;;;;;;;35.55;28.08;;;;;;;;;;4993659;28;92559;-79
2022/11/12 06:40:39;;;;;;;34.85;25.65;;;;;;;;;;4995843;28;92350;-80
2022/11/12 06:43:24;;;;;;;38.13;25.98;;;;;;;;;;4992037;28;91855;-79
2022/11/12 06:46:11;;;;;;;51.85;24.67;;;;;;;;;;4984927;28;92479;-79
2022/11/12 06:48:57;;;;;;;44.75;27.60;;;;;;;;;;4975620;28;92453;-79
2022/11/12 06:51:42;;;;;;;92.82;31.75;;;;;;;;;;4972312;28;95097;-80
2022/11/12 06:54:27;;;;;;;84.38;30.58;;;;;;;;;;4973318;28;92761;-81
2022/11/12 06:57:12;;;;;;;53.50;30.00;;;;;;;;;;4976411;28;92514;-80
2022/11/12 06:59:56;;;;;;;42.17;26.52;;;;;;;;;;4974253;28;92994;-80
2022/11/12 07:02:43;;;;;;;35.63;25.63;;;;;;;;;;4987037;28;92939;-78
2022/11/12 07:05:30;;;;;;;34.28;24.50;;;;;;;;;;4997557;28;92491;-79
2022/11/12 07:08:14;;;;;;;35.13;25.30;;;;;;;;;;4992362;28;92947;-78
2022/11/12 07:10:59;;;;;;;38.80;26.17;;;;;;;;;;4994350;28;92601;-78
2022/11/12 07:13:44;;;;;;;35.53;25.48;;;;;;;;;;4994778;28;92614;-80
2022/11/12 07:16:29;;;;;;;34.55;24.02;;;;;;;;;;4995945;28;92390;-79
2022/11/12 07:19:14;;;;;;;37.08;26.95;;;;;;;;;;4993415;28;95243;-79
2022/11/12 07:21:59;;;;;;;30.00;23.80;;;;;;;;;;4994582;28;93140;-80
2022/11/12 07:24:43;;;;;;;32.28;24.88;;;;;;;;;;4996182;28;92958;-80
2022/11/12 07:27:29;;;;;;;28.38;22.52;;;;;;;;;;4997317;28;92569;-80
2022/11/12 07:30:16;;;;;;;30.60;21.95;;;;;;;;;;4995440;28;92386;-80
2022/11/12 07:33:01;;;;;;;31.63;22.73;;;;;;;;;;4998942;28;92474;-80
2022/11/12 07:35:45;;;;;;;27.05;20.92;;;;;;;;;;4999810;28;92452;-79
2022/11/12 07:38:31;;;;;;;23.25;19.33;;;;;;;;;;4999861;28;91597;-80
2022/11/12 07:41:17;;;;;;;27.02;21.27;;;;;;;;;;4995214;28;92365;-81
2022/11/12 07:44:02;;;;;;;26.55;22.50;;;;;;;;;;4994113;28;92974;-80
2022/11/12 07:46:47;;;;;;;25.20;22.17;;;;;;;;;;4994435;28;94768;-79
2022/11/12 07:49:31;;;;;;;27.95;21.60;;;;;;;;;;4998306;28;94892;-81
2022/11/12 07:52:16;;;;;;;27.02;21.05;;;;;;;;;;5001299;28;92899;-80
2022/11/12 07:55:01;;;;;;;26.20;21.08;;;;;;;;;;4998949;28;92309;-80
2022/11/12 07:57:46;;;;;;;25.17;19.42;;;;;;;;;;4979813;28;92313;-79
2022/11/12 08:00:30;;;;;;;23.52;20.63;;;;;;;;;;4983703;28;92328;-80
2022/11/12 08:03:15;;;;;;;24.65;20.55;;;;;;;;;;4976415;28;92457;-80
2022/11/12 08:06:00;;;;;;;24.80;18.67;;;;;;;;;;4980326;28;91953;-80
2022/11/12 08:08:46;;;;;;;35.92;20.73;;;;;;;;;;4977314;28;92435;-79
2022/11/12 08:11:31;;;;;;;24.92;19.80;;;;;;;;;;4976439;28;92495;-80
2022/11/12 08:14:16;;;;;;;25.90;20.63;;;;;;;;;;4975588;28;94997;-80
2022/11/12 08:17:01;;;;;;;23.02;20.25;;;;;;;;;;4978773;28;92347;-81
2022/11/12 08:19:48;;;;;;;25.05;20.48;;;;;;;;;;4980778;28;92358;-81
2022/11/12 08:22:33;;;;;;;22.15;19.75;;;;;;;;;;4994751;28;93350;-80
2022/11/12 08:25:17;;;;;;;23.38;19.95;;;;;;;;;;4974890;28;92454;-79
2022/11/12 08:28:03;;;;;;;24.42;16.60;;;;;;;;;;4974776;28;92603;-79
2022/11/12 08:30:49;;;;;;;30.95;21.73;;;;;;;;;;4974056;28;92762;-81
2022/11/12 08:33:34;;;;;;;25.90;22.05;;;;;;;;;;4975689;28;92440;-78
2022/11/12 08:36:19;;;;;;;26.10;21.35;;;;;;;;;;4979346;28;92908;-78
2022/11/12 08:39:04;;;;;;;31.60;20.23;;;;;;;;;;4996906;28;92271;-78
2022/11/12 08:41:48;;;;;;;27.90;20.77;;;;;;;;;;4996887;28;94803;-79
2022/11/12 08:44:34;;;;;;;27.50;20.25;;;;;;;;;;4996635;28;92244;-78
2022/11/12 08:47:19;;;;;;;27.70;22.23;;;;;;;;;;4992097;28;92801;-78
2022/11/12 08:50:04;;;;;;;26.38;21.92;;;;;;;;;;4975099;28;92670;-77
2022/11/12 08:52:49;;;;;;;28.45;23.80;;;;;;;;;;4973150;28;92372;-78
2022/11/12 08:55:34;;;;;;;28.60;24.65;;;;;;;;;;4971619;28;92454;-79
2022/11/12 08:58:20;;;;;;;25.98;22.23;;;;;;;;;;4978471;28;92594;-79
2022/11/12 09:01:05;;;;;;;25.20;21.38;;;;;;;;;;4976891;28;92180;-79
2022/11/12 09:03:50;;;;;;;26.33;20.67;;;;;;;;;;4996966;28;92521;-79
2022/11/12 09:06:35;;;;;;;27.65;19.83;;;;;;;;;;4998545;28;92611;-78
2022/11/12 09:09:20;;;;;;;22.15;18.40;;;;;;;;;;4993380;28;94806;-79
2022/11/12 09:12:05;;;;;;;23.35;18.30;;;;;;;;;;4995884;28;92740;-77
2022/11/12 09:15:00;;;;;;;19.75;15.88;;;;;;;;;;4994619;28;92568;-80
2022/11/12 09:18:06;;;;;;;17.10;14.65;;;;;;;;;;4996371;28;92452;-78
2022/11/12 09:20:51;;;;;;;22.67;16.13;;;;;;;;;;4985752;28;92762;-79
2022/11/12 09:23:36;;;;;;;26.25;15.98;;;;;;;;;;4993390;28;94353;-81
2022/11/12 09:26:21;;;;;;;16.75;14.93;;;;;;;;;;4978691;28;94184;-79
2022/11/12 09:29:06;;;;;;;17.50;15.65;;;;;;;;;;4995205;28;93745;-78
2022/11/12 09:31:51;;;;;;;18.42;15.85;;;;;;;;;;4999690;28;92542;-80
2022/11/12 09:34:36;;;;;;;17.58;15.68;;;;;;;;;;4993217;28;94503;-80
2022/11/12 09:37:21;;;;;;;19.45;16.17;;;;;;;;;;4980087;28;95091;-80
2022/11/12 09:40:06;;;;;;;19.67;15.98;;;;;;;;;;4994192;28;94758;-79
2022/11/12 09:42:54;;;;;;;18.17;14.88;;;;;;;;;;4995136;28;92680;-79
2022/11/12 09:45:40;;;;;;;16.95;15.18;;;;;;;;;;4979318;28;92399;-81
2022/11/12 09:48:46;;;;;;;17.83;15.93;;;;;;;;;;4989800;28;92608;-79
2022/11/12 09:51:38;;;;;;;16.77;15.18;;;;;;;;;;4992233;28;93572;-79
2022/11/12 09:54:33;;;;;;;20.08;16.15;;;;;;;;;;4994774;28;93238;-80
2022/11/12 09:57:18;;;;;;;18.20;16.02;;;;;;;;;;4991160;28;92126;-80
2022/11/12 10:00:13;;;;;;;16.20;14.60;;;;;;;;;;4993607;28;92883;-81
2022/11/12 10:02:58;;;;;;;16.85;15.13;;;;;;;;;;4994298;28;93368;-81
2022/11/12 10:05:59;;;;;;;20.00;14.85;;;;;;;;;;4992091;28;95369;-80
2022/11/12 10:08:50;;;;;;;15.18;13.70;;;;;;;;;;4985822;28;92381;-79
2022/11/12 10:14:57;;;;;;;15.20;13.47;;;;;;;;;;4984849;28;92734;-80
2022/11/12 10:17:47;;;;;;;15.38;13.85;;;;;;;;;;4996662;28;92383;-80
2022/11/12 10:20:40;;;;;;;17.00;13.55;;;;;;;;;;4996307;28;92490;-80
2022/11/12 10:23:25;;;;;;;;;;;;;;;;;;4993465;28;92433;-79
2022/11/12 10:26:14;;;;;;;16.33;13.48;;;;;;;;;;4992410;28;92032;-80
2022/11/12 10:29:18;;;;;;;16.58;13.15;;;;;;;;;;4987741;28;92683;-81
2022/11/12 10:32:03;;;;;;;13.70;12.45;;;;;;;;;;4976501;28;92842;-81
2022/11/12 10:34:48;;;;;;;17.10;13.05;;;;;;;;;;4983027;28;96140;-79
2022/11/12 10:37:34;;;;;;;14.88;13.43;;;;;;;;;;4995118;28;92669;-79
2022/11/12 10:40:18;;;;;;;18.00;13.07;;;;;;;;;;4995756;28;92976;-79
2022/11/12 10:43:15;;;;;;;15.70;14.07;;;;;;;;;;4994558;28;94107;-79
2022/11/12 10:46:20;;;;;;;15.98;12.40;;;;;;;;;;4998190;28;92778;-80
2022/11/12 10:49:15;;;;;;;20.33;13.63;;;;;;;;;;4996141;28;92578;-79
2022/11/12 10:52:02;;;;;;;20.25;13.35;;;;;;;;;;4995378;28;92740;-80
2022/11/12 10:54:48;;;;;;;14.73;13.20;;;;;;;;;;4995877;28;91831;-81
2022/11/12 10:57:38;;;;;;;16.65;13.82;;;;;;;;;;4992943;28;93304;-81
2022/11/12 11:00:23;;;;;;;17.48;13.95;;;;;;;;;;4988292;28;93211;-81
2022/11/12 11:03:17;;;;;;;19.73;14.05;;;;;;;;;;4975813;28;94846;-80
2022/11/12 11:06:16;;;;;;;15.52;13.93;;;;;;;;;;4993761;28;94875;-80
2022/11/12 11:09:07;;;;;;;15.45;13.68;;;;;;;;;;4990854;28;92616;-79
2022/11/12 11:11:55;;;;;;;14.07;11.70;;;;;;;;;;5000878;28;92463;-85
2022/11/12 11:14:43;;;;;;;14.93;13.38;;;;;;;;;;4992705;28;92675;-78
2022/11/12 11:17:30;;;;;;;20.95;13.25;;;;;;;;;;4993853;28;93015;-78
2022/11/12 11:20:18;;;;;;;13.68;12.38;;;;;;;;;;4988916;28;93792;-79
2022/11/12 11:23:20;;;;;;;13.77;12.40;;;;;;;;;;4994007;28;92596;-79
2022/11/12 11:26:15;;;;;;;16.65;13.65;;;;;;;;;;4992254;28;92611;-77
2022/11/12 11:29:06;;;;;;;14.07;12.77;;;;;;;;;;4992753;28;94176;-78
2022/11/12 11:31:59;;;;;;;17.17;11.52;;;;;;;;;;4992854;28;95048;-78
2022/11/12 11:35:02;;;;;;;12.63;11.20;;;;;;;;;;4995803;28;92617;-78
2022/11/12 11:37:51;;;;;;;12.75;11.00;;;;;;;;;;4992846;28;92573;-79
2022/11/12 11:40:50;;;;;;;15.68;11.13;;;;;;;;;;4989954;28;92501;-80
2022/11/12 11:43:42;;;;;;;11.93;10.73;;;;;;;;;;4990195;28;92428;-80
2022/11/12 11:46:26;;;;;;;12.32;10.02;;;;;;;;;;4984182;28;92684;-79
2022/11/12 11:49:23;;;;;;;11.98;10.70;;;;;;;;;;4988825;28;93819;-80
2022/11/12 11:52:20;;;;;;;14.48;10.15;;;;;;;;;;4992737;28;92477;-80
2022/11/12 11:55:26;;;;;;;10.25;8.60;;;;;;;;;;4990049;28;93836;-78
2022/11/12 11:58:17;;;;;;;11.30;9.20;;;;;;;;;;4992875;28;92481;-79
2022/11/12 12:01:11;;;;;;;9.93;8.85;;;;;;;;;;4994102;28;94828;-80
2022/11/12 12:03:59;;;;;;;9.65;8.57;;;;;;;;;;4992847;28;92657;-80
2022/11/12 12:06:56;;;;;;;10.02;7.82;;;;;;;;;;4987262;28;92485;-80
2022/11/12 12:09:41;;;;;;;10.85;8.40;;;;;;;;;;4993368;28;93411;-81
2022/11/12 12:12:26;;;;;;;10.57;7.25;;;;;;;;;;4992520;28;94560;-80
2022/11/12 12:15:22;;;;;;;10.05;8.48;;;;;;;;;;4994469;28;92439;-78
2022/11/12 12:18:32;;;;;;;8.57;7.75;;;;;;;;;;4993325;28;93914;-80
2022/11/12 12:21:18;;;;;;;12.10;8.88;;;;;;;;;;4992136;28;92482;-81
2022/11/12 12:24:26;;;;;;;9.38;8.57;;;;;;;;;;4993165;28;92307;-79
2022/11/12 12:27:13;;;;;;;10.73;7.43;;;;;;;;;;4996521;28;92655;-79
2022/11/12 12:30:01;;;;;;;13.13;9.60;;;;;;;;;;4993517;28;95662;-80
2022/11/12 12:32:48;;;;;;;10.40;9.50;;;;;;;;;;4997783;28;92681;-80
2022/11/12 12:35:35;;;;;;;10.85;9.07;;;;;;;;;;4996499;28;92299;-80
2022/11/12 12:38:24;;;;;;;12.20;10.65;;;;;;;;;;4996647;28;92430;-80
2022/11/12 12:41:09;;;;;;;11.18;9.73;;;;;;;;;;4997276;28;92693;-78
2022/11/12 12:43:58;;;;;;;10.65;9.68;;;;;;;;;;4993216;28;92904;-79
2022/11/12 12:46:55;;;;;;;10.93;9.32;;;;;;;;;;4987271;28;93075;-79
2022/11/12 12:49:41;;;;;;;10.00;8.98;;;;;;;;;;4998048;28;92540;-78
2022/11/12 12:52:28;;;;;;;10.52;8.52;;;;;;;;;;5002159;28;92384;-78
2022/11/12 12:55:32;;;;;;;9.93;8.82;;;;;;;;;;4996241;28;92707;-78
2022/11/12 12:58:23;;;;;;;10.50;9.45;;;;;;;;;;4995046;28;94758;-79
2022/11/12 13:01:21;;;;;;;9.88;9.05;;;;;;;;;;4997054;28;94869;-79
2022/11/12 13:04:07;;;;;;;11.63;10.20;;;;;;;;;;4999001;28;92370;-79
2022/11/12 13:06:53;;;;;;;11.20;10.20;;;;;;;;;;4996909;28;92642;-80
2022/11/12 13:09:40;;;;;;;10.65;9.68;;;;;;;;;;4999033;28;92579;-79
2022/11/12 13:12:44;;;;;;;9.95;9.05;;;;;;;;;;4996526;28;92753;-79
2022/11/12 13:15:56;;;;;;;11.10;9.52;;;;;;;;;;4996253;28;93026;-79
2022/11/12 13:18:41;;;;;;;9.52;8.55;;;;;;;;;;5000964;28;92242;-79
2022/11/12 13:21:26;;;;;;;10.90;8.65;;;;;;;;;;4994616;28;92511;-79
2022/11/12 13:24:12;;;;;;;10.75;7.35;;;;;;;;;;4995567;28;92446;-80
2022/11/12 13:26:57;;;;;;;9.52;8.02;;;;;;;;;;4996198;28;95083;-79
2022/11/12 13:29:43;;;;;;;16.98;9.68;;;;;;;;;;4994541;28;92425;-78
2022/11/12 13:32:30;;;;;;;13.90;8.45;;;;;;;;;;4990898;28;92541;-79
2022/11/12 13:35:16;;;;;;;12.77;8.75;;;;;;;;;;4995309;28;92671;-79
2022/11/12 13:38:03;;;;;;;9.38;8.52;;;;;;;;;;4995881;28;92367;-78
2022/11/12 13:40:51;;;;;;;11.35;9.23;;;;;;;;;;4995978;28;92492;-80
2022/11/12 13:43:41;;;;;;;9.05;8.25;;;;;;;;;;4994720;28;92642;-79
2022/11/12 13:46:31;;;;;;;9.75;8.77;;;;;;;;;;4996397;28;92287;-80
2022/11/12 13:49:17;;;;;;;12.77;8.90;;;;;;;;;;4996441;28;92709;-79
2022/11/12 13:52:03;;;;;;;13.13;9.02;;;;;;;;;;4991082;28;92460;-79
2022/11/12 13:54:59;;;;;;;9.63;8.63;;;;;;;;;;4981399;28;94891;-79
2022/11/12 13:57:54;;;;;;;13.23;10.18;;;;;;;;;;4996282;28;92428;-78
2022/11/12 14:00:39;;;;;;;14.35;12.23;;;;;;;;;;4994677;28;92433;-78
2022/11/12 14:03:29;;;;;;;20.10;14.57;;;;;;;;;;4974452;28;92824;-78
2022/11/12 14:06:21;;;;;;;22.52;19.73;;;;;;;;;;4981216;28;92699;-80
2022/11/12 14:09:06;;;;;;;27.17;17.05;;;;;;;;;;4998131;28;92340;-80
2022/11/12 14:12:04;;;;;;;28.92;16.15;;;;;;;;;;4991800;28;92454;-80
2022/11/12 14:15:08;;;;;;;14.70;12.40;;;;;;;;;;4995486;28;91598;-80
2022/11/12 14:18:00;;;;;;;13.30;11.85;;;;;;;;;;4993225;28;92388;-80
2022/11/12 14:20:45;;;;;;;10.02;9.20;;;;;;;;;;4994725;28;92609;-80
2022/11/12 14:23:30;;;;;;;10.90;8.80;;;;;;;;;;4995831;28;94827;-80
2022/11/12 14:26:34;;;;;;;10.15;8.23;;;;;;;;;;4995489;28;94788;-80
2022/11/12 14:29:20;;;;;;;8.40;7.70;;;;;;;;;;4997133;28;92647;-80
2022/11/12 14:32:08;;;;;;;12.43;8.70;;;;;;;;;;4992405;28;92465;-77
2022/11/12 14:34:53;;;;;;;9.15;7.97;;;;;;;;;;4979662;28;93202;-77
2022/11/12 14:37:38;;;;;;;8.88;7.93;;;;;;;;;;4977000;28;92886;-78
2022/11/12 14:40:29;;;;;;;12.43;8.80;;;;;;;;;;4975023;28;92953;-79
2022/11/12 14:43:19;;;;;;;12.77;8.65;;;;;;;;;;4975501;28;92012;-77
2022/11/12 14:46:23;;;;;;;10.18;9.02;;;;;;;;;;4977313;28;92693;-78
2022/11/12 14:49:25;;;;;;;14.50;9.77;;;;;;;;;;4987571;28;92584;-79
2022/11/12 14:52:13;;;;;;;12.65;10.23;;;;;;;;;;4992311;28;94942;-79
2022/11/12 14:55:03;;;;;;;12.70;10.27;;;;;;;;;;4994793;28;92375;-79
2022/11/12 14:57:48;;;;;;;12.10;10.82;;;;;;;;;;4999513;28;92919;-78
2022/11/12 15:00:35;;;;;;;26.73;15.20;;;;;;;;;;4995823;28;92453;-81
2022/11/12 15:03:23;;;;;;;19.42;12.23;;;;;;;;;;4994662;28;92576;-78
2022/11/12 15:06:09;;;;;;;15.20;11.65;;;;;;;;;;4993166;28;92686;-79
2022/11/12 15:08:58;;;;;;;16.30;11.30;;;;;;;;;;4993872;28;92600;-79
2022/11/12 15:11:46;;;;;;;12.27;11.07;;;;;;;;;;4995125;28;92445;-80
2022/11/12 15:14:31;;;;;;;17.13;11.52;;;;;;;;;;4993124;28;92639;-79
2022/11/12 15:17:28;;;;;;;22.58;12.77;;;;;;;;;;4995942;28;92175;-79
2022/11/12 15:20:16;;;;;;;19.67;13.85;;;;;;;;;;4992175;28;94830;-79
2022/11/12 15:23:04;;;;;;;16.88;15.07;;;;;;;;;;4996506;28;92662;-79
2022/11/12 15:26:00;;;;;;;21.30;16.15;;;;;;;;;;4995455;28;92518;-79
2022/11/12 15:29:07;;;;;;;23.50;16.15;;;;;;;;;;4993051;28;92700;-78
2022/11/12 15:31:57;;;;;;;14.48;13.13;;;;;;;;;;4993899;28;92490;-79
2022/11/12 15:34:44;;;;;;;18.38;13.18;;;;;;;;;;4992912;28;92396;-79
2022/11/12 15:37:32;;;;;;;16.15;13.88;;;;;;;;;;4992057;28;92367;-79
2022/11/12 15:40:18;;;;;;;16.83;14.48;;;;;;;;;;4996151;28;91631;-79
2022/11/12 15:43:11;;;;;;;22.80;16.27;;;;;;;;;;4993341;28;92298;-79
2022/11/12 15:45:56;;;;;;;18.58;16.60;;;;;;;;;;4983531;28;92735;-79
2022/11/12 15:48:41;;;;;;;22.92;16.98;;;;;;;;;;4993622;28;94953;-79
2022/11/12 15:51:25;;;;;;;21.40;17.88;;;;;;;;;;4992765;28;92647;-79
2022/11/12 15:54:10;;;;;;;21.98;18.27;;;;;;;;;;4994698;28;92650;-79
2022/11/12 15:56:55;;;;;;;26.48;18.00;;;;;;;;;;4992022;28;92970;-79
2022/11/12 15:59:42;;;;;;;22.10;17.55;;;;;;;;;;4992491;28;92377;-79
2022/11/12 16:02:28;;;;;;;31.55;17.58;;;;;;;;;;4984667;28;92557;-79
2022/11/12 16:05:14;;;;;;;22.73;18.17;;;;;;;;;;4973474;28;92930;-79
2022/11/12 16:07:59;;;;;;;20.10;17.50;;;;;;;;;;4986368;28;92001;-79
2022/11/12 16:10:44;;;;;;;26.52;17.10;;;;;;;;;;4993743;28;92893;-79
2022/11/12 16:13:32;;;;;;;22.77;16.70;;;;;;;;;;4995707;28;92530;-79
2022/11/12 16:16:16;;;;;;;22.40;16.20;;;;;;;;;;4991360;28;94860;-79
2022/11/12 16:19:01;;;;;;;29.88;15.32;;;;;;;;;;4994046;28;94805;-79
2022/11/12 16:21:46;;;;;;;20.83;16.33;;;;;;;;;;4995287;28;92573;-86
2022/11/12 16:24:31;;;;;;;22.08;17.27;;;;;;;;;;4990897;28;92497;-79
2022/11/12 16:27:19;;;;;;;26.30;17.08;;;;;;;;;;4991623;28;92472;-80
2022/11/12 16:30:06;;;;;;;19.48;16.95;;;;;;;;;;4992327;28;92706;-78
2022/11/12 16:32:51;;;;;;;21.70;16.50;;;;;;;;;;4977651;28;92625;-80
2022/11/12 16:35:37;;;;;;;24.75;16.00;;;;;;;;;;4992896;28;92543;-78
2022/11/12 16:38:24;;;;;;;26.45;15.70;;;;;;;;;;4994886;28;92598;-80
2022/11/12 16:41:10;;;;;;;19.70;15.80;;;;;;;;;;4992421;28;92553;-79